createdAt,value
2023-02-15T00:00:55.254Z,3.59
2023-02-15T00:03:26.304Z,4.24
2023-02-15T00:05:59.991Z,4.36
2023-02-15T00:08:27.594Z,3.12
2023-02-15T00:11:08.343Z,4.28
2023-02-15T00:13:36.460Z,4.07
2023-02-15T00:16:04.639Z,3.94
2023-02-15T00:18:33.707Z,3.26
2023-02-15T00:21:06.369Z,3.49
2023-02-15T00:23:35.181Z,3.93
2023-02-15T00:26:11.884Z,4.11
2023-02-15T00:28:38.423Z,3.57
2023-02-15T00:31:10.254Z,4.05
2023-02-15T00:33:40.081Z,3.95
2023-02-15T00:36:10.450Z,3.71
2023-02-15T00:38:44.464Z,3.77
2023-02-15T00:41:15.558Z,4.10
2023-02-15T00:43:45.946Z,4.09
2023-02-15T00:46:16.425Z,3.61
2023-02-15T00:48:46.913Z,2.77
2023-02-15T00:51:17.511Z,3.91
2023-02-15T00:53:47.437Z,2.24
2023-02-15T00:56:21.969Z,3.56
2023-02-15T00:58:52.165Z,3.14
2023-02-15T01:01:23.695Z,3.42
2023-02-15T01:03:53.329Z,3.47
2023-02-15T01:06:23.212Z,2.74
2023-02-15T01:08:53.502Z,2.25
2023-02-15T01:11:23.746Z,3.27
2023-02-15T01:13:58.286Z,3.75
2023-02-15T01:16:28.575Z,2.74
2023-02-15T01:18:58.453Z,3.51
2023-02-15T01:21:29.534Z,3.08
2023-02-15T01:24:01.341Z,3.55
2023-02-15T01:26:30.239Z,3.31
2023-02-15T01:29:01.036Z,1.83
2023-02-15T01:31:34.097Z,3.70
2023-02-15T01:34:04.000Z,3.57
2023-02-15T01:36:34.412Z,3.01
2023-02-15T01:39:04.194Z,1.95
2023-02-15T01:41:34.675Z,3.21
2023-02-15T01:44:43.595Z,3.29
2023-02-15T01:47:23.636Z,3.50
2023-02-15T01:49:59.309Z,2.49
2023-02-15T01:52:30.337Z,3.53
2023-02-15T01:55:02.552Z,3.77
2023-02-15T01:57:34.197Z,3.53
2023-02-15T02:00:10.302Z,3.48
2023-02-15T02:02:42.780Z,3.51
2023-02-15T02:05:13.199Z,3.59
2023-02-15T02:07:42.701Z,3.64
2023-02-15T02:10:20.546Z,3.46
2023-02-15T02:12:55.067Z,3.58
2023-02-15T02:15:40.398Z,2.18
2023-02-15T02:18:27.639Z,3.01
2023-02-15T02:21:49.726Z,3.45
2023-02-15T02:24:39.378Z,2.95
2023-02-15T02:27:24.512Z,3.00
2023-02-15T02:30:25.053Z,2.98
2023-02-15T02:33:19.320Z,3.38
2023-02-15T02:36:09.220Z,3.43
2023-02-15T02:38:49.450Z,3.34
2023-02-15T02:41:44.530Z,3.25
2023-02-15T02:44:23.951Z,2.48
2023-02-15T02:47:13.358Z,3.25
2023-02-15T02:49:44.589Z,3.42
2023-02-15T02:52:38.938Z,3.22
2023-02-15T02:55:32.199Z,3.01
2023-02-15T02:58:14.932Z,2.87
2023-02-15T03:01:06.267Z,2.82
2023-02-15T03:03:39.174Z,2.96
2023-02-15T03:06:18.986Z,2.92
2023-02-15T03:09:02.042Z,3.02
2023-02-15T03:11:32.694Z,2.90
2023-02-15T03:14:03.472Z,3.06
2023-02-15T03:16:34.003Z,2.97
2023-02-15T03:19:10.017Z,2.86
2023-02-15T03:21:57.799Z,3.11
2023-02-15T03:24:27.387Z,2.61
2023-02-15T03:26:54.942Z,2.99
2023-02-15T03:29:28.296Z,2.80
2023-02-15T03:31:58.826Z,2.76
2023-02-15T03:34:25.644Z,2.73
2023-02-15T03:37:11.744Z,2.29
2023-02-15T03:39:47.212Z,2.27
2023-02-15T03:42:19.834Z,2.69
2023-02-15T03:45:00.136Z,2.84
2023-02-15T03:47:37.861Z,2.39
2023-02-15T03:50:45.696Z,2.76
2023-02-15T03:53:21.952Z,2.54
2023-02-15T03:55:55.938Z,2.63
2023-02-15T03:58:45.868Z,2.73
2023-02-15T04:01:59.944Z,2.86
2023-02-15T04:04:33.190Z,2.96
2023-02-15T04:06:59.758Z,3.04
2023-02-15T04:09:44.303Z,2.98
2023-02-15T04:12:15.751Z,2.02
2023-02-15T04:15:05.527Z,2.15
2023-02-15T04:17:31.665Z,1.51
2023-02-15T04:20:19.999Z,1.89
2023-02-15T04:23:08.876Z,2.01
2023-02-15T04:25:39.391Z,2.73
2023-02-15T04:28:10.222Z,2.74
2023-02-15T04:30:40.583Z,2.32
2023-02-15T04:33:11.600Z,2.09
2023-02-15T04:35:45.265Z,2.47
2023-02-15T04:38:15.974Z,2.55
2023-02-15T04:40:52.203Z,2.40
2023-02-15T04:43:23.255Z,2.49
2023-02-15T04:45:53.942Z,2.40
2023-02-15T04:48:29.651Z,2.86
2023-02-15T04:51:06.669Z,2.71
2023-02-15T04:53:37.414Z,2.46
2023-02-15T04:56:12.429Z,2.33
2023-02-15T04:58:43.188Z,2.35
2023-02-15T05:01:14.972Z,2.21
2023-02-15T05:03:49.729Z,2.44
2023-02-15T05:06:20.120Z,2.12
2023-02-15T05:08:51.205Z,1.64
2023-02-15T05:11:22.254Z,1.92
2023-02-15T05:13:53.008Z,2.21
2023-02-15T05:16:25.780Z,2.47
2023-02-15T05:18:57.215Z,2.76
2023-02-15T05:21:29.115Z,1.89
2023-02-15T05:23:59.750Z,1.89
2023-02-15T05:26:48.938Z,2.25
2023-02-15T05:29:15.456Z,1.89
2023-02-15T05:31:47.544Z,2.20
2023-02-15T05:34:17.103Z,2.22
2023-02-15T05:36:48.097Z,1.69
2023-02-15T05:39:19.373Z,1.27
2023-02-15T05:41:48.899Z,1.96
2023-02-15T05:44:19.209Z,1.64
2023-02-15T05:46:49.847Z,2.24
2023-02-15T05:49:20.127Z,1.22
2023-02-15T05:51:50.871Z,1.84
2023-02-15T05:54:22.240Z,1.95
2023-02-15T05:56:53.486Z,2.27
2023-02-15T05:59:24.332Z,2.08
2023-02-15T06:01:55.088Z,2.22
2023-02-15T06:04:26.872Z,2.19
2023-02-15T06:06:56.446Z,2.44
2023-02-15T06:09:26.831Z,2.13
2023-02-15T06:11:57.048Z,2.17
2023-02-15T06:14:27.651Z,2.19
2023-02-15T06:16:57.841Z,2.27
2023-02-15T06:19:28.079Z,1.76
2023-02-15T06:22:00.988Z,1.94
2023-02-15T06:24:30.819Z,1.65
2023-02-15T06:27:01.211Z,2.14
2023-02-15T06:29:32.373Z,1.93
2023-02-15T06:32:03.314Z,1.98
2023-02-15T06:34:33.559Z,-0.25
2023-02-15T06:37:03.985Z,2.33
2023-02-15T06:39:37.815Z,2.59
2023-02-15T06:42:08.393Z,2.18
2023-02-15T06:44:38.706Z,2.18
2023-02-15T06:47:09.182Z,0.90
2023-02-15T06:49:39.794Z,2.37
2023-02-15T06:52:10.055Z,2.10
2023-02-15T06:54:40.371Z,2.21
2023-02-15T06:57:14.280Z,1.88
2023-02-15T06:59:45.107Z,1.39
2023-02-15T07:02:15.826Z,1.89
2023-02-15T07:04:46.173Z,2.35
2023-02-15T07:07:16.502Z,2.06
2023-02-15T07:09:47.053Z,2.38
2023-02-15T07:12:36.282Z,1.56
2023-02-15T07:15:07.881Z,2.14
2023-02-15T07:17:36.505Z,2.16
2023-02-15T07:20:05.253Z,2.08
2023-02-15T07:22:39.425Z,2.22
2023-02-15T07:25:07.349Z,1.96
2023-02-15T07:27:33.922Z,1.19
2023-02-15T07:30:00.594Z,1.98
2023-02-15T07:32:35.436Z,1.36
2023-02-15T07:35:04.060Z,-0.53
2023-02-15T07:37:33.662Z,1.20
2023-02-15T07:40:04.912Z,1.28
2023-02-15T07:42:34.393Z,1.94
2023-02-15T07:45:05.333Z,1.76
2023-02-15T07:47:34.865Z,2.13
2023-02-15T07:50:08.527Z,1.69
2023-02-15T07:52:38.214Z,1.87
2023-02-15T07:55:09.164Z,2.09
2023-02-15T07:57:42.457Z,1.36
2023-02-15T08:00:09.586Z,1.75
2023-02-15T08:02:40.473Z,1.73
2023-02-15T08:05:10.583Z,1.43
2023-02-15T08:07:45.235Z,1.82
2023-02-15T08:10:35.208Z,1.59
2023-02-15T08:13:01.255Z,1.43
2023-02-15T08:15:31.864Z,1.70
2023-02-15T08:17:58.038Z,1.86
2023-02-15T08:20:24.222Z,2.31
2023-02-15T08:22:50.459Z,-1.42
2023-02-15T08:25:25.236Z,1.94
2023-02-15T08:27:55.087Z,2.12
2023-02-15T08:30:25.868Z,2.11
2023-02-15T08:32:55.872Z,1.87
2023-02-15T08:35:26.148Z,1.93
2023-02-15T08:37:56.384Z,1.97
2023-02-15T08:40:27.099Z,1.97
2023-02-15T08:43:03.094Z,1.64
2023-02-15T08:45:33.840Z,1.86
2023-02-15T08:48:03.904Z,1.76
2023-02-15T08:50:34.293Z,1.85
2023-02-15T08:53:05.238Z,1.63
2023-02-15T08:55:35.740Z,1.66
2023-02-15T08:58:06.168Z,1.36
2023-02-15T09:00:40.149Z,1.55
2023-02-15T09:03:10.206Z,-2.37
2023-02-15T09:05:41.253Z,1.59
2023-02-15T09:08:11.592Z,1.85
2023-02-15T09:10:42.076Z,1.65
2023-02-15T09:13:11.754Z,1.33
2023-02-15T09:15:41.963Z,2.00
2023-02-15T09:18:17.401Z,1.95
2023-02-15T09:20:45.620Z,2.12
2023-02-15T09:23:26.366Z,2.05
2023-02-15T09:26:09.220Z,2.30
2023-02-15T09:28:35.560Z,1.89
2023-02-15T09:31:29.128Z,2.37
2023-02-15T09:34:01.607Z,1.95
2023-02-15T09:36:33.149Z,2.14
2023-02-15T09:39:11.405Z,2.09
2023-02-15T09:41:44.820Z,1.81
2023-02-15T09:44:38.436Z,1.94
2023-02-15T09:47:45.902Z,2.55
2023-02-15T09:50:36.712Z,2.47
2023-02-15T09:53:29.949Z,2.19
2023-02-15T09:55:59.097Z,2.02
2023-02-15T09:58:55.952Z,2.02
2023-02-15T10:01:45.286Z,2.05
2023-02-15T10:04:25.023Z,2.17
2023-02-15T10:06:57.152Z,2.38
2023-02-15T10:09:30.489Z,2.19
2023-02-15T10:12:14.291Z,2.23
2023-02-15T10:15:00.506Z,2.12
2023-02-15T10:18:08.887Z,2.14
2023-02-15T10:20:58.051Z,1.91
2023-02-15T10:23:43.095Z,2.20
2023-02-15T10:26:20.705Z,1.87
2023-02-15T10:28:56.534Z,2.26
2023-02-15T10:32:14.857Z,2.27
2023-02-15T10:35:06.567Z,2.32
2023-02-15T10:38:02.783Z,2.52
2023-02-15T10:41:01.255Z,1.83
2023-02-15T10:43:45.544Z,2.97
2023-02-15T10:46:14.776Z,2.42
2023-02-15T10:48:53.096Z,2.65
2023-02-15T10:51:40.688Z,2.67
2023-02-15T10:54:14.163Z,2.49
2023-02-15T10:57:03.973Z,2.57
2023-02-15T10:59:57.739Z,2.91
2023-02-15T11:02:34.776Z,-0.92
2023-02-15T11:05:19.343Z,2.61
2023-02-15T11:07:53.423Z,2.90
2023-02-15T11:11:02.354Z,2.85
2023-02-15T11:13:36.020Z,1.90
2023-02-15T11:16:17.649Z,1.94
2023-02-15T11:18:57.673Z,2.41
2023-02-15T11:21:32.846Z,2.53
2023-02-15T11:24:15.319Z,3.11
2023-02-15T11:26:58.056Z,3.14
2023-02-15T11:29:37.093Z,2.70
2023-02-15T11:32:28.888Z,2.77
2023-02-15T11:35:12.116Z,2.90
2023-02-15T11:38:02.254Z,3.15
2023-02-15T11:40:43.020Z,2.88
2023-02-15T11:43:18.284Z,1.77
2023-02-15T11:45:49.401Z,3.02
2023-02-15T11:48:19.924Z,3.30
2023-02-15T11:50:50.345Z,3.02
2023-02-15T11:53:25.104Z,3.14
2023-02-15T11:55:52.224Z,3.54
2023-02-15T11:58:42.993Z,3.02
2023-02-15T12:01:34.623Z,3.53
2023-02-15T12:04:24.659Z,3.42
2023-02-15T12:07:04.986Z,2.04
2023-02-15T12:09:41.987Z,3.20
2023-02-15T12:12:26.353Z,3.38
2023-02-15T12:14:59.044Z,2.99
2023-02-15T12:17:33.367Z,3.32
2023-02-15T12:20:07.359Z,3.27
2023-02-15T12:22:37.751Z,2.09
2023-02-15T12:25:23.602Z,3.34
2023-02-15T12:27:54.176Z,2.67
2023-02-15T12:30:34.444Z,3.83
2023-02-15T12:33:15.811Z,3.73
2023-02-15T12:35:50.043Z,3.59
2023-02-15T12:38:25.657Z,3.41
2023-02-15T12:41:00.894Z,3.67
2023-02-15T12:43:32.108Z,2.86
2023-02-15T12:46:14.895Z,3.54
2023-02-15T12:48:46.383Z,2.36
2023-02-15T12:51:15.486Z,3.52
2023-02-15T12:53:44.740Z,3.25
2023-02-15T12:56:26.748Z,3.45
2023-02-15T12:59:05.051Z,3.09
2023-02-15T13:01:32.597Z,3.68
2023-02-15T13:04:25.007Z,3.95
2023-02-15T13:07:00.595Z,3.56
2023-02-15T13:09:31.470Z,3.55
2023-02-15T13:12:18.498Z,3.47
2023-02-15T13:14:55.377Z,3.74
2023-02-15T13:17:29.775Z,3.72
2023-02-15T13:20:23.117Z,3.18
2023-02-15T13:23:06.624Z,2.83
2023-02-15T13:25:50.487Z,3.06
2023-02-15T13:28:24.803Z,3.53
2023-02-15T13:30:57.135Z,3.66
2023-02-15T13:33:33.881Z,3.44
2023-02-15T13:36:08.027Z,3.74
2023-02-15T13:38:58.451Z,3.42
2023-02-15T13:42:11.578Z,3.81
2023-02-15T13:45:01.418Z,3.84
2023-02-15T13:47:37.912Z,3.53
2023-02-15T13:50:13.791Z,3.59
2023-02-15T13:52:51.631Z,3.82
2023-02-15T13:55:37.297Z,3.83
2023-02-15T13:58:19.105Z,3.50
2023-02-15T14:01:15.998Z,3.79
2023-02-15T14:04:16.522Z,3.48
2023-02-15T14:07:27.125Z,3.92
2023-02-15T14:10:19.494Z,4.11
2023-02-15T14:13:15.509Z,3.61
2023-02-15T14:16:33.647Z,3.42
2023-02-15T14:19:09.075Z,3.74
2023-02-15T14:21:41.192Z,3.71
2023-02-15T14:24:13.318Z,3.57
2023-02-15T14:27:10.041Z,3.80
2023-02-15T14:29:45.904Z,3.37
2023-02-15T14:32:17.252Z,2.70
2023-02-15T14:34:51.094Z,3.78
2023-02-15T14:37:24.772Z,3.50
2023-02-15T14:40:51.072Z,3.48
2023-02-15T14:43:45.591Z,3.66
2023-02-15T14:46:27.013Z,3.50
2023-02-15T14:49:18.527Z,3.76
2023-02-15T14:51:56.821Z,3.42
2023-02-15T14:54:22.827Z,3.80
2023-02-15T14:57:01.142Z,3.75
2023-02-15T14:59:53.196Z,3.70
2023-02-15T15:02:23.576Z,3.89
2023-02-15T15:05:01.151Z,4.21
2023-02-15T15:07:35.211Z,3.98
2023-02-15T15:10:30.196Z,3.91
2023-02-15T15:12:57.431Z,4.19
2023-02-15T15:15:32.494Z,3.99
2023-02-15T15:18:05.597Z,3.78
2023-02-15T15:20:57.913Z,4.11
2023-02-15T15:23:44.514Z,4.19
2023-02-15T15:26:33.498Z,4.18
2023-02-15T15:29:00.960Z,4.33
2023-02-15T15:31:51.424Z,4.09
2023-02-15T15:34:32.880Z,4.46
2023-02-15T15:37:36.635Z,4.26
2023-02-15T15:40:25.464Z,4.08
2023-02-15T15:43:33.067Z,4.23
2023-02-15T15:46:07.080Z,3.90
2023-02-15T15:48:38.423Z,3.86
2023-02-15T15:51:33.444Z,3.81
2023-02-15T15:54:00.575Z,4.03
2023-02-15T15:56:31.513Z,4.29
2023-02-15T15:59:03.227Z,3.00
2023-02-15T16:01:31.649Z,4.04
2023-02-15T16:03:59.256Z,4.12
2023-02-15T16:06:29.912Z,3.95
2023-02-15T16:08:56.118Z,3.66
2023-02-15T16:11:27.656Z,3.42
2023-02-15T16:13:54.263Z,3.42
2023-02-15T16:16:22.970Z,3.69
2023-02-15T16:18:49.546Z,3.18
2023-02-15T16:21:22.023Z,3.38
2023-02-15T16:24:03.492Z,3.45
2023-02-15T16:26:54.246Z,3.06
2023-02-15T16:29:31.531Z,3.63
2023-02-15T16:32:17.584Z,3.31
2023-02-15T16:34:57.539Z,3.57
2023-02-15T16:37:27.451Z,3.17
2023-02-15T16:39:55.334Z,3.42
2023-02-15T16:42:21.951Z,3.64
2023-02-15T16:45:09.849Z,3.75
2023-02-15T16:47:41.470Z,3.66
2023-02-15T16:50:18.154Z,3.41
2023-02-15T16:52:44.622Z,3.65
2023-02-15T16:55:23.535Z,3.50
2023-02-15T16:57:49.880Z,3.35
2023-02-15T17:00:21.606Z,3.77
2023-02-15T17:03:13.955Z,3.43
2023-02-15T17:05:39.961Z,3.31
2023-02-15T17:08:14.721Z,3.19
2023-02-15T17:10:45.229Z,3.27
2023-02-15T17:13:16.173Z,2.51
2023-02-15T17:15:58.343Z,2.93
2023-02-15T17:18:25.009Z,3.03
2023-02-15T17:20:52.915Z,3.02
2023-02-15T17:23:23.251Z,3.21
2023-02-15T17:25:49.482Z,3.07
2023-02-15T17:28:20.681Z,2.90
2023-02-15T17:30:47.518Z,2.68
2023-02-15T17:33:29.261Z,2.59
2023-02-15T17:36:22.768Z,2.79
2023-02-15T17:39:05.495Z,2.84
2023-02-15T17:41:37.549Z,2.88
2023-02-15T17:44:04.272Z,3.03
2023-02-15T17:46:35.489Z,2.84
2023-02-15T17:49:01.926Z,3.05
2023-02-15T17:51:28.132Z,2.80
2023-02-15T17:54:12.715Z,2.87
2023-02-15T17:56:39.222Z,3.13
2023-02-15T17:59:06.913Z,3.00
2023-02-15T18:01:57.555Z,2.94
2023-02-15T18:04:42.778Z,3.09
2023-02-15T18:07:30.294Z,3.12
2023-02-15T18:10:14.665Z,2.51
2023-02-15T18:12:41.699Z,3.05
2023-02-15T18:15:10.270Z,3.11
2023-02-15T18:17:45.442Z,2.93
2023-02-15T18:20:17.528Z,3.17
2023-02-15T18:22:45.679Z,2.92
2023-02-15T18:25:13.731Z,3.23
2023-02-15T18:27:39.803Z,3.22
2023-02-15T18:30:07.785Z,3.21
2023-02-15T18:32:35.918Z,3.16
2023-02-15T18:35:02.974Z,2.99
2023-02-15T18:37:32.316Z,0.62
2023-02-15T18:39:59.775Z,3.14
2023-02-15T18:42:27.129Z,3.04
2023-02-15T18:44:59.621Z,2.98
2023-02-15T18:47:26.421Z,2.93
2023-02-15T18:49:52.629Z,2.98
2023-02-15T18:52:21.487Z,3.00
2023-02-15T18:54:51.174Z,3.13
2023-02-15T18:57:17.220Z,3.04
2023-02-15T18:59:43.366Z,2.19
2023-02-15T19:02:17.920Z,2.94
2023-02-15T19:04:44.871Z,3.07
2023-02-15T19:07:20.480Z,2.24
2023-02-15T19:09:49.773Z,3.32
2023-02-15T19:12:15.853Z,3.25
2023-02-15T19:14:41.943Z,3.12
2023-02-15T19:17:16.103Z,3.24
2023-02-15T19:19:42.743Z,2.85
2023-02-15T19:22:30.252Z,3.17
2023-02-15T19:24:59.138Z,2.61
2023-02-15T19:27:34.271Z,3.16
2023-02-15T19:30:03.465Z,3.05
2023-02-15T19:32:30.449Z,3.02
2023-02-15T19:34:56.841Z,3.23
2023-02-15T19:37:27.539Z,3.13
2023-02-15T19:39:53.853Z,3.07
2023-02-15T19:42:22.687Z,3.38
2023-02-15T19:44:50.139Z,3.04
2023-02-15T19:47:16.725Z,2.54
2023-02-15T19:49:42.845Z,3.21
2023-02-15T19:52:19.682Z,2.97
2023-02-15T19:54:47.437Z,3.23
2023-02-15T19:57:13.760Z,2.07
2023-02-15T19:59:40.137Z,3.27
2023-02-15T20:02:06.702Z,3.22
2023-02-15T20:04:33.001Z,2.96
2023-02-15T20:07:01.006Z,3.26
2023-02-15T20:09:32.051Z,3.11
2023-02-15T20:11:57.953Z,2.87
2023-02-15T20:14:23.792Z,3.17
2023-02-15T20:16:49.703Z,3.05
2023-02-15T20:19:15.736Z,3.13
2023-02-15T20:21:42.984Z,3.28
2023-02-15T20:24:19.845Z,3.40
2023-02-15T20:26:45.681Z,3.02
2023-02-15T20:29:17.714Z,3.24
2023-02-15T20:31:44.271Z,3.35
2023-02-15T20:34:10.596Z,2.92
2023-02-15T20:36:36.970Z,3.11
2023-02-15T20:39:12.004Z,3.24
2023-02-15T20:41:46.290Z,2.91
2023-02-15T20:44:26.320Z,2.98
2023-02-15T20:46:57.111Z,2.58
2023-02-15T20:49:24.479Z,2.48
2023-02-15T20:51:51.669Z,2.98
2023-02-15T20:54:19.366Z,2.37
2023-02-15T20:56:46.083Z,3.17
2023-02-15T20:59:33.295Z,3.24
2023-02-15T21:02:01.698Z,3.20
2023-02-15T21:04:36.638Z,3.11
2023-02-15T21:07:02.668Z,2.13
2023-02-15T21:09:28.848Z,2.98
2023-02-15T21:11:56.084Z,3.29
2023-02-15T21:14:23.662Z,3.47
2023-02-15T21:16:50.251Z,3.22
2023-02-15T21:19:19.245Z,3.19
2023-02-15T21:21:45.981Z,3.28
2023-02-15T21:24:18.611Z,3.53
2023-02-15T21:26:45.631Z,3.42
2023-02-15T21:29:19.102Z,3.00
2023-02-15T21:31:45.555Z,3.22
2023-02-15T21:34:12.105Z,3.24
2023-02-15T21:36:39.551Z,3.40
2023-02-15T21:39:05.966Z,3.45
2023-02-15T21:41:50.421Z,3.42
2023-02-15T21:44:43.670Z,3.31
2023-02-15T21:47:50.945Z,3.42
2023-02-15T21:50:37.620Z,3.23
2023-02-15T21:53:04.733Z,3.25
2023-02-15T21:55:31.226Z,3.11
2023-02-15T21:57:57.066Z,3.21
2023-02-15T22:00:24.165Z,3.38
2023-02-15T22:02:54.911Z,3.18
2023-02-15T22:05:28.476Z,3.15
2023-02-15T22:07:54.748Z,2.35
2023-02-15T22:10:22.730Z,3.24
2023-02-15T22:12:49.446Z,3.33
2023-02-15T22:15:20.231Z,3.12
2023-02-15T22:17:46.475Z,3.22
2023-02-15T22:20:19.862Z,3.11
2023-02-15T22:22:46.763Z,3.21
2023-02-15T22:25:14.861Z,2.99
2023-02-15T22:27:42.209Z,3.37
2023-02-15T22:30:28.667Z,2.97
2023-02-15T22:32:56.165Z,3.04
2023-02-15T22:35:28.263Z,3.37
2023-02-15T22:37:54.735Z,3.30
2023-02-15T22:40:21.526Z,3.49
2023-02-15T22:42:49.468Z,3.59
2023-02-15T22:45:18.034Z,3.23
2023-02-15T22:47:44.315Z,3.15
2023-02-15T22:50:21.957Z,2.88
2023-02-15T22:52:48.794Z,3.36
2023-02-15T22:55:20.988Z,3.17
2023-02-15T22:57:49.063Z,3.43
2023-02-15T23:00:17.683Z,2.05
2023-02-15T23:02:44.011Z,3.25
2023-02-15T23:05:28.426Z,3.02
2023-02-15T23:07:54.897Z,3.35
2023-02-15T23:10:22.919Z,3.23
2023-02-15T23:13:10.519Z,3.33
2023-02-15T23:15:36.987Z,3.29
2023-02-15T23:18:18.603Z,3.24
2023-02-15T23:20:46.364Z,2.42
2023-02-15T23:23:13.401Z,3.15
2023-02-15T23:25:39.808Z,3.12
2023-02-15T23:28:24.172Z,3.09
2023-02-15T23:30:50.069Z,3.16
2023-02-15T23:33:18.784Z,2.12
2023-02-15T23:35:44.656Z,3.03
2023-02-15T23:38:39.719Z,3.05
2023-02-15T23:41:20.896Z,3.09
2023-02-15T23:43:49.656Z,2.84
2023-02-15T23:46:26.885Z,3.14
2023-02-15T23:48:53.432Z,3.24
2023-02-15T23:51:21.328Z,3.26
2023-02-15T23:53:47.162Z,3.61
2023-02-15T23:56:13.444Z,3.54
2023-02-15T23:58:41.184Z,3.18
